sensor_id;sensor_type;location;lat;lon;timestamp;noise_LAeq;noise_LA_min;noise_LA_max;noise_LA01;noise_LA95
67300;Laerm;57658;51.436;5.980;2023-09-18T00:00:01;32.23;30.98;33.68;;
67300;Laerm;57658;51.436;5.980;2023-09-18T00:00:11;31.67;30.53;33.31;;
67300;Laerm;57658;51.436;5.980;2023-09-18T00:00:22;31.85;30.77;33.11;;
67300;Laerm;57658;51.436;5.980;2023-09-18T00:00:33;32.06;30.67;36.66;;
67300;Laerm;57658;51.436;5.980;2023-09-18T00:00:46;32.27;30.66;41.92;;
67300;Laerm;57658;51.436;5.980;2023-09-18T00:00:56;33.02;31.32;35.16;;
67300;Laerm;57658;51.436;5.980;2023-09-18T00:01:07;33.11;31.36;35.13;;
67300;Laerm;57658;51.436;5.980;2023-09-18T00:01:18;32.78;31.26;34.79;;
67300;Laerm;57658;51.436;5.980;2023-09-18T00:01:29;33.20;31.15;36.87;;
67300;Laerm;57658;51.436;5.980;2023-09-18T00:01:40;35.07;31.07;40.34;;
67300;Laerm;57658;51.436;5.980;2023-09-18T00:01:50;34.86;31.73;40.04;;
67300;Laerm;57658;51.436;5.980;2023-09-18T00:02:00;36.29;31.67;42.63;;
67300;Laerm;57658;51.436;5.980;2023-09-18T00:02:11;35.81;32.22;41.22;;
67300;Laerm;57658;51.436;5.980;2023-09-18T00:02:21;35.98;32.93;44.54;;
67300;Laerm;57658;51.436;5.980;2023-09-18T00:02:31;64.31;34.16;77.94;;
67300;Laerm;57658;51.436;5.980;2023-09-18T00:02:42;74.34;65.76;79.92;;
67300;Laerm;57658;51.436;5.980;2023-09-18T00:02:53;66.24;51.70;79.09;;
67300;Laerm;57658;51.436;5.980;2023-09-18T00:03:03;56.97;51.95;59.14;;
67300;Laerm;57658;51.436;5.980;2023-09-18T00:03:13;57.08;52.07;59.50;;
67300;Laerm;57658;51.436;5.980;2023-09-18T00:03:23;70.25;53.96;85.62;;
67300;Laerm;57658;51.436;5.980;2023-09-18T00:03:36;84.25;79.53;89.96;;
67300;Laerm;57658;51.436;5.980;2023-09-18T00:03:47;83.73;80.77;85.92;;
67300;Laerm;57658;51.436;5.980;2023-09-18T00:03:57;71.36;51.28;85.12;;
67300;Laerm;57658;51.436;5.980;2023-09-18T00:04:09;48.29;42.63;54.45;;
67300;Laerm;57658;51.436;5.980;2023-09-18T00:04:19;41.54;35.92;50.31;;
67300;Laerm;57658;51.436;5.980;2023-09-18T00:04:29;37.20;33.34;43.79;;
67300;Laerm;57658;51.436;5.980;2023-09-18T00:04:40;33.51;31.07;38.11;;
67300;Laerm;57658;51.436;5.980;2023-09-18T00:04:50;31.81;30.51;32.94;;
67300;Laerm;57658;51.436;5.980;2023-09-18T00:05:00;31.44;30.04;32.61;;
67300;Laerm;57658;51.436;5.980;2023-09-18T00:05:11;31.70;30.68;32.85;;
67300;Laerm;57658;51.436;5.980;2023-09-18T00:05:25;31.24;29.82;32.96;;
67300;Laerm;57658;51.436;5.980;2023-09-18T00:05:36;31.31;30.07;33.28;;
67300;Laerm;57658;51.436;5.980;2023-09-18T00:05:47;31.21;29.88;32.04;;
67300;Laerm;57658;51.436;5.980;2023-09-18T00:06:00;31.39;29.96;34.83;;
67300;Laerm;57658;51.436;5.980;2023-09-18T00:06:10;32.64;30.88;35.83;;
67300;Laerm;57658;51.436;5.980;2023-09-18T00:06:21;33.78;31.29;37.39;;
67300;Laerm;57658;51.436;5.980;2023-09-18T00:06:33;33.29;30.81;41.30;;
67300;Laerm;57658;51.436;5.980;2023-09-18T00:06:44;31.43;30.34;33.74;;
67300;Laerm;57658;51.436;5.980;2023-09-18T00:06:54;31.71;30.18;33.10;;
67300;Laerm;57658;51.436;5.980;2023-09-18T00:07:04;32.32;31.03;34.26;;
67300;Laerm;57658;51.436;5.980;2023-09-18T00:07:14;32.74;30.97;35.07;;
67300;Laerm;57658;51.436;5.980;2023-09-18T00:07:25;31.70;30.40;33.10;;
67300;Laerm;57658;51.436;5.980;2023-09-18T00:07:35;32.67;30.58;35.38;;
67300;Laerm;57658;51.436;5.980;2023-09-18T00:07:45;35.44;32.61;38.16;;
67300;Laerm;57658;51.436;5.980;2023-09-18T00:07:55;33.15;31.55;35.02;;
67300;Laerm;57658;51.436;5.980;2023-09-18T00:08:06;33.30;31.64;35.74;;
67300;Laerm;57658;51.436;5.980;2023-09-18T00:08:17;35.08;32.48;37.56;;
67300;Laerm;57658;51.436;5.980;2023-09-18T00:08:27;35.63;33.03;38.00;;
67300;Laerm;57658;51.436;5.980;2023-09-18T00:08:38;34.08;32.44;35.72;;
67300;Laerm;57658;51.436;5.980;2023-09-18T00:08:49;33.19;31.45;35.27;;
67300;Laerm;57658;51.436;5.980;2023-09-18T00:09:01;33.18;31.32;36.18;;
67300;Laerm;57658;51.436;5.980;2023-09-18T00:09:11;33.23;31.01;34.65;;
67300;Laerm;57658;51.436;5.980;2023-09-18T00:09:21;34.19;32.54;36.49;;
67300;Laerm;57658;51.436;5.980;2023-09-18T00:09:32;35.66;33.13;37.72;;
67300;Laerm;57658;51.436;5.980;2023-09-18T00:09:42;35.09;32.44;37.54;;
67300;Laerm;57658;51.436;5.980;2023-09-18T00:09:52;38.02;34.32;42.89;;
67300;Laerm;57658;51.436;5.980;2023-09-18T00:10:02;39.06;35.09;42.79;;
67300;Laerm;57658;51.436;5.980;2023-09-18T00:10:13;71.32;37.19;79.38;;
67300;Laerm;57658;51.436;5.980;2023-09-18T00:10:25;72.66;54.02;79.88;;
67300;Laerm;57658;51.436;5.980;2023-09-18T00:10:35;57.06;52.38;59.19;;
67300;Laerm;57658;51.436;5.980;2023-09-18T00:10:46;57.44;52.62;59.99;;
67300;Laerm;57658;51.436;5.980;2023-09-18T00:10:57;58.84;53.18;62.14;;
67300;Laerm;57658;51.436;5.980;2023-09-18T00:11:08;73.59;57.70;83.68;;
67300;Laerm;57658;51.436;5.980;2023-09-18T00:11:19;83.35;76.33;88.62;;
67300;Laerm;57658;51.436;5.980;2023-09-18T00:11:30;74.73;60.62;81.76;;
67300;Laerm;57658;51.436;5.980;2023-09-18T00:11:40;57.48;44.31;65.41;;
67300;Laerm;57658;51.436;5.980;2023-09-18T00:11:50;41.76;36.61;49.85;;
67300;Laerm;57658;51.436;5.980;2023-09-18T00:12:02;35.56;32.94;42.52;;
67300;Laerm;57658;51.436;5.980;2023-09-18T00:12:13;33.01;31.16;41.58;;
67300;Laerm;57658;51.436;5.980;2023-09-18T00:12:23;31.73;30.47;33.86;;
67300;Laerm;57658;51.436;5.980;2023-09-18T00:12:33;31.41;30.34;32.36;;
67300;Laerm;57658;51.436;5.980;2023-09-18T00:12:44;31.30;30.18;35.44;;
67300;Laerm;57658;51.436;5.980;2023-09-18T00:12:54;31.20;29.81;32.52;;
67300;Laerm;57658;51.436;5.980;2023-09-18T00:13:04;31.04;29.91;32.24;;
67300;Laerm;57658;51.436;5.980;2023-09-18T00:13:15;30.93;29.87;31.99;;
67300;Laerm;57658;51.436;5.980;2023-09-18T00:13:25;30.71;29.38;31.64;;
67300;Laerm;57658;51.436;5.980;2023-09-18T00:13:36;30.61;29.61;31.98;;
67300;Laerm;57658;51.436;5.980;2023-09-18T00:13:46;30.94;29.70;35.16;;
67300;Laerm;57658;51.436;5.980;2023-09-18T00:13:56;30.82;29.63;31.78;;
67300;Laerm;57658;51.436;5.980;2023-09-18T00:14:07;30.96;29.88;32.11;;
67300;Laerm;57658;51.436;5.980;2023-09-18T00:14:18;31.49;30.22;34.17;;
67300;Laerm;57658;51.436;5.980;2023-09-18T00:14:28;32.05;29.99;34.34;;
67300;Laerm;57658;51.436;5.980;2023-09-18T00:14:38;34.27;31.22;37.91;;
67300;Laerm;57658;51.436;5.980;2023-09-18T00:14:49;36.19;33.36;39.31;;
67300;Laerm;57658;51.436;5.980;2023-09-18T00:15:00;33.35;30.95;37.21;;
67300;Laerm;57658;51.436;5.980;2023-09-18T00:15:10;32.60;31.06;34.45;;
67300;Laerm;57658;51.436;5.980;2023-09-18T00:15:20;31.90;30.70;34.17;;
67300;Laerm;57658;51.436;5.980;2023-09-18T00:15:30;31.22;29.87;32.44;;
67300;Laerm;57658;51.436;5.980;2023-09-18T00:15:41;31.32;30.09;32.42;;
67300;Laerm;57658;51.436;5.980;2023-09-18T00:15:54;31.32;30.22;36.25;;
67300;Laerm;57658;51.436;5.980;2023-09-18T00:16:04;31.10;30.02;32.25;;
67300;Laerm;57658;51.436;5.980;2023-09-18T00:16:14;31.10;29.87;32.16;;
67300;Laerm;57658;51.436;5.980;2023-09-18T00:16:25;31.00;30.10;32.09;;
67300;Laerm;57658;51.436;5.980;2023-09-18T00:16:37;30.95;30.00;32.10;;
67300;Laerm;57658;51.436;5.980;2023-09-18T00:16:47;30.99;29.93;31.98;;
67300;Laerm;57658;51.436;5.980;2023-09-18T00:16:58;30.85;29.83;32.13;;
67300;Laerm;57658;51.436;5.980;2023-09-18T00:17:10;31.03;29.92;31.87;;
67300;Laerm;57658;51.436;5.980;2023-09-18T00:17:20;31.08;29.95;32.50;;
67300;Laerm;57658;51.436;5.980;2023-09-18T00:17:34;31.05;29.91;32.72;;
67300;Laerm;57658;51.436;5.980;2023-09-18T00:17:44;31.04;29.83;31.90;;
67300;Laerm;57658;51.436;5.980;2023-09-18T00:17:55;31.25;30.09;32.52;;
67300;Laerm;57658;51.436;5.980;2023-09-18T00:18:05;31.12;29.98;32.51;;
67300;Laerm;57658;51.436;5.980;2023-09-18T00:18:16;31.23;30.15;32.57;;
67300;Laerm;57658;51.436;5.980;2023-09-18T00:18:26;31.20;30.00;32.25;;
67300;Laerm;57658;51.436;5.980;2023-09-18T00:18:36;31.18;29.80;32.24;;
67300;Laerm;57658;51.436;5.980;2023-09-18T00:18:47;31.17;30.02;32.14;;
67300;Laerm;57658;51.436;5.980;2023-09-18T00:18:57;30.93;29.91;32.13;;
67300;Laerm;57658;51.436;5.980;2023-09-18T00:19:07;31.08;29.87;36.63;;
67300;Laerm;57658;51.436;5.980;2023-09-18T00:19:18;30.88;29.63;31.93;;
67300;Laerm;57658;51.436;5.980;2023-09-18T00:19:28;30.95;30.03;32.15;;
67300;Laerm;57658;51.436;5.980;2023-09-18T00:19:38;30.95;29.91;31.81;;
67300;Laerm;57658;51.436;5.980;2023-09-18T00:19:49;30.98;29.73;32.16;;
67300;Laerm;57658;51.436;5.980;2023-09-18T00:19:59;30.98;29.83;32.28;;
67300;Laerm;57658;51.436;5.980;2023-09-18T00:20:09;31.23;29.91;33.33;;
67300;Laerm;57658;51.436;5.980;2023-09-18T00:20:20;31.80;29.96;35.31;;
67300;Laerm;57658;51.436;5.980;2023-09-18T00:20:30;31.81;30.39;34.76;;
67300;Laerm;57658;51.436;5.980;2023-09-18T00:20:40;31.90;30.48;36.00;;
67300;Laerm;57658;51.436;5.980;2023-09-18T00:20:51;31.69;29.81;34.95;;
67300;Laerm;57658;51.436;5.980;2023-09-18T00:21:02;31.69;30.08;35.34;;
67300;Laerm;57658;51.436;5.980;2023-09-18T00:21:12;31.66;29.94;35.23;;
67300;Laerm;57658;51.436;5.980;2023-09-18T00:21:23;32.27;30.33;44.87;;
67300;Laerm;57658;51.436;5.980;2023-09-18T00:21:35;31.73;30.05;35.98;;
67300;Laerm;57658;51.436;5.980;2023-09-18T00:21:45;31.40;29.95;36.05;;
67300;Laerm;57658;51.436;5.980;2023-09-18T00:21:56;31.38;30.05;33.55;;
67300;Laerm;57658;51.436;5.980;2023-09-18T00:22:06;31.68;29.88;34.31;;
67300;Laerm;57658;51.436;5.980;2023-09-18T00:22:16;31.80;30.44;35.70;;
67300;Laerm;57658;51.436;5.980;2023-09-18T00:22:27;31.43;29.91;33.41;;
67300;Laerm;57658;51.436;5.980;2023-09-18T00:22:38;32.57;30.14;47.43;;
67300;Laerm;57658;51.436;5.980;2023-09-18T00:22:48;32.06;30.50;37.87;;
67300;Laerm;57658;51.436;5.980;2023-09-18T00:22:59;31.85;30.30;34.54;;
67300;Laerm;57658;51.436;5.980;2023-09-18T00:23:09;31.99;30.56;36.92;;
67300;Laerm;57658;51.436;5.980;2023-09-18T00:23:20;32.02;30.20;36.24;;
67300;Laerm;57658;51.436;5.980;2023-09-18T00:23:30;31.93;30.17;37.39;;
67300;Laerm;57658;51.436;5.980;2023-09-18T00:23:41;31.76;30.16;34.60;;
67300;Laerm;57658;51.436;5.980;2023-09-18T00:23:52;32.06;30.14;42.76;;
67300;Laerm;57658;51.436;5.980;2023-09-18T00:24:02;31.23;29.79;33.59;;
67300;Laerm;57658;51.436;5.980;2023-09-18T00:24:13;31.48;30.24;33.49;;
67300;Laerm;57658;51.436;5.980;2023-09-18T00:24:23;31.92;30.68;33.44;;
67300;Laerm;57658;51.436;5.980;2023-09-18T00:24:35;32.08;30.52;35.01;;
67300;Laerm;57658;51.436;5.980;2023-09-18T00:24:45;32.03;30.74;33.67;;
67300;Laerm;57658;51.436;5.980;2023-09-18T00:24:55;31.78;30.41;33.71;;
67300;Laerm;57658;51.436;5.980;2023-09-18T00:25:06;31.72;30.54;35.29;;
67300;Laerm;57658;51.436;5.980;2023-09-18T00:25:16;32.18;30.48;35.73;;
67300;Laerm;57658;51.436;5.980;2023-09-18T00:25:26;32.42;30.66;41.75;;
67300;Laerm;57658;51.436;5.980;2023-09-18T00:25:37;31.93;29.78;40.73;;
67300;Laerm;57658;51.436;5.980;2023-09-18T00:25:47;31.77;29.94;37.38;;
67300;Laerm;57658;51.436;5.980;2023-09-18T00:25:57;31.58;30.21;35.10;;
67300;Laerm;57658;51.436;5.980;2023-09-18T00:26:07;31.42;30.27;32.93;;
67300;Laerm;57658;51.436;5.980;2023-09-18T00:26:18;31.98;30.12;34.67;;
67300;Laerm;57658;51.436;5.980;2023-09-18T00:26:28;31.66;30.44;33.42;;
67300;Laerm;57658;51.436;5.980;2023-09-18T00:26:38;31.46;30.00;34.08;;
67300;Laerm;57658;51.436;5.980;2023-09-18T00:26:49;31.34;29.74;41.83;;
67300;Laerm;57658;51.436;5.980;2023-09-18T00:26:59;31.92;29.86;44.12;;
67300;Laerm;57658;51.436;5.980;2023-09-18T00:27:09;31.60;30.39;33.21;;
67300;Laerm;57658;51.436;5.980;2023-09-18T00:27:21;31.64;30.34;32.65;;
67300;Laerm;57658;51.436;5.980;2023-09-18T00:27:31;31.77;30.21;32.98;;
67300;Laerm;57658;51.436;5.980;2023-09-18T00:27:42;31.55;30.27;33.02;;
67300;Laerm;57658;51.436;5.980;2023-09-18T00:27:53;31.48;30.42;32.83;;
67300;Laerm;57658;51.436;5.980;2023-09-18T00:28:04;31.35;30.32;32.79;;
67300;Laerm;57658;51.436;5.980;2023-09-18T00:28:14;32.21;30.60;42.43;;
67300;Laerm;57658;51.436;5.980;2023-09-18T00:28:24;31.81;30.56;33.57;;
67300;Laerm;57658;51.436;5.980;2023-09-18T00:28:35;32.92;31.54;37.13;;
67300;Laerm;57658;51.436;5.980;2023-09-18T00:28:45;56.26;31.55;77.86;;
67300;Laerm;57658;51.436;5.980;2023-09-18T00:28:55;74.13;65.46;79.39;;
67300;Laerm;57658;51.436;5.980;2023-09-18T00:29:06;68.15;54.27;79.12;;
67300;Laerm;57658;51.436;5.980;2023-09-18T00:29:16;58.23;53.37;61.21;;
67300;Laerm;57658;51.436;5.980;2023-09-18T00:29:26;57.15;49.79;60.97;;
67300;Laerm;57658;51.436;5.980;2023-09-18T00:29:36;59.53;52.48;64.56;;
67300;Laerm;57658;51.436;5.980;2023-09-18T00:29:47;80.82;62.58;86.82;;
67300;Laerm;57658;51.436;5.980;2023-09-18T00:29:57;81.08;77.39;90.43;;
67300;Laerm;57658;51.436;5.980;2023-09-18T00:30:07;74.10;55.77;81.64;;
67300;Laerm;57658;51.436;5.980;2023-09-18T00:30:18;49.99;39.14;61.83;;
67300;Laerm;57658;51.436;5.980;2023-09-18T00:30:29;38.29;34.99;43.35;;
67300;Laerm;57658;51.436;5.980;2023-09-18T00:30:42;35.45;32.76;39.98;;
67300;Laerm;57658;51.436;5.980;2023-09-18T00:30:53;34.51;31.98;41.77;;
67300;Laerm;57658;51.436;5.980;2023-09-18T00:31:03;34.55;31.50;43.78;;
67300;Laerm;57658;51.436;5.980;2023-09-18T00:31:14;34.40;31.55;40.87;;
67300;Laerm;57658;51.436;5.980;2023-09-18T00:31:24;34.12;31.35;40.53;;
67300;Laerm;57658;51.436;5.980;2023-09-18T00:31:34;32.30;30.28;35.98;;
67300;Laerm;57658;51.436;5.980;2023-09-18T00:31:44;32.55;30.69;36.78;;
67300;Laerm;57658;51.436;5.980;2023-09-18T00:31:55;32.18;30.32;36.76;;
67300;Laerm;57658;51.436;5.980;2023-09-18T00:32:05;31.97;30.53;37.46;;
67300;Laerm;57658;51.436;5.980;2023-09-18T00:32:16;31.81;30.45;35.60;;
67300;Laerm;57658;51.436;5.980;2023-09-18T00:32:27;31.65;30.51;33.66;;
67300;Laerm;57658;51.436;5.980;2023-09-18T00:32:38;31.48;30.43;33.03;;
67300;Laerm;57658;51.436;5.980;2023-09-18T00:32:48;31.73;30.00;36.40;;
67300;Laerm;57658;51.436;5.980;2023-09-18T00:33:00;31.84;30.21;40.75;;
67300;Laerm;57658;51.436;5.980;2023-09-18T00:33:10;31.26;30.23;32.76;;
67300;Laerm;57658;51.436;5.980;2023-09-18T00:33:20;31.02;30.00;32.63;;
67300;Laerm;57658;51.436;5.980;2023-09-18T00:33:31;30.84;29.83;32.09;;
67300;Laerm;57658;51.436;5.980;2023-09-18T00:33:41;31.10;30.14;32.42;;
67300;Laerm;57658;51.436;5.980;2023-09-18T00:33:51;31.19;29.96;32.42;;
67300;Laerm;57658;51.436;5.980;2023-09-18T00:34:02;30.68;29.46;32.12;;
67300;Laerm;57658;51.436;5.980;2023-09-18T00:34:12;30.67;29.21;31.68;;
67300;Laerm;57658;51.436;5.980;2023-09-18T00:34:22;30.92;29.97;31.86;;
67300;Laerm;57658;51.436;5.980;2023-09-18T00:34:32;30.88;29.73;31.83;;
67300;Laerm;57658;51.436;5.980;2023-09-18T00:34:43;30.93;29.76;32.18;;
67300;Laerm;57658;51.436;5.980;2023-09-18T00:34:53;30.98;29.73;34.77;;
67300;Laerm;57658;51.436;5.980;2023-09-18T00:35:03;30.99;29.61;35.51;;
67300;Laerm;57658;51.436;5.980;2023-09-18T00:35:14;31.16;30.22;32.20;;
67300;Laerm;57658;51.436;5.980;2023-09-18T00:35:24;30.88;30.04;31.83;;
67300;Laerm;57658;51.436;5.980;2023-09-18T00:35:35;30.55;29.60;31.47;;
67300;Laerm;57658;51.436;5.980;2023-09-18T00:35:46;30.59;29.37;31.63;;
67300;Laerm;57658;51.436;5.980;2023-09-18T00:35:56;30.87;29.88;31.87;;
67300;Laerm;57658;51.436;5.980;2023-09-18T00:36:06;30.77;29.29;32.78;;
67300;Laerm;57658;51.436;5.980;2023-09-18T00:36:17;30.80;29.86;33.33;;
67300;Laerm;57658;51.436;5.980;2023-09-18T00:36:27;31.04;30.28;31.84;;
67300;Laerm;57658;51.436;5.980;2023-09-18T00:36:37;30.91;29.84;35.91;;
67300;Laerm;57658;51.436;5.980;2023-09-18T00:36:48;30.73;29.76;31.77;;
67300;Laerm;57658;51.436;5.980;2023-09-18T00:36:58;31.10;30.06;39.55;;
67300;Laerm;57658;51.436;5.980;2023-09-18T00:37:11;31.28;30.24;33.60;;
67300;Laerm;57658;51.436;5.980;2023-09-18T00:37:22;31.11;30.15;32.40;;
67300;Laerm;57658;51.436;5.980;2023-09-18T00:37:32;30.93;30.01;37.91;;
67300;Laerm;57658;51.436;5.980;2023-09-18T00:37:43;31.03;29.85;32.09;;
67300;Laerm;57658;51.436;5.980;2023-09-18T00:37:53;30.92;29.83;31.96;;
67300;Laerm;57658;51.436;5.980;2023-09-18T00:38:03;31.24;30.08;32.19;;
67300;Laerm;57658;51.436;5.980;2023-09-18T00:38:14;31.23;29.91;32.21;;
67300;Laerm;57658;51.436;5.980;2023-09-18T00:38:24;30.95;29.78;31.94;;
67300;Laerm;57658;51.436;5.980;2023-09-18T00:38:35;30.75;29.90;31.68;;
67300;Laerm;57658;51.436;5.980;2023-09-18T00:38:45;31.20;29.93;43.96;;
67300;Laerm;57658;51.436;5.980;2023-09-18T00:38:56;30.89;29.82;31.78;;
67300;Laerm;57658;51.436;5.980;2023-09-18T00:39:06;30.86;29.58;31.95;;
67300;Laerm;57658;51.436;5.980;2023-09-18T00:39:17;31.03;29.78;31.89;;
67300;Laerm;57658;51.436;5.980;2023-09-18T00:39:27;30.82;29.92;31.78;;
67300;Laerm;57658;51.436;5.980;2023-09-18T00:39:38;30.89;29.77;32.31;;
67300;Laerm;57658;51.436;5.980;2023-09-18T00:39:49;31.06;30.09;31.96;;
67300;Laerm;57658;51.436;5.980;2023-09-18T00:40:00;30.99;29.45;38.32;;
67300;Laerm;57658;51.436;5.980;2023-09-18T00:40:11;30.68;29.25;31.70;;
67300;Laerm;57658;51.436;5.980;2023-09-18T00:40:21;30.65;29.69;32.15;;
67300;Laerm;57658;51.436;5.980;2023-09-18T00:40:31;30.87;29.90;32.16;;
67300;Laerm;57658;51.436;5.980;2023-09-18T00:40:42;31.01;29.82;31.98;;
67300;Laerm;57658;51.436;5.980;2023-09-18T00:40:52;30.75;29.61;31.88;;
67300;Laerm;57658;51.436;5.980;2023-09-18T00:41:02;30.52;29.36;32.86;;
67300;Laerm;57658;51.436;5.980;2023-09-18T00:41:13;30.59;29.58;31.98;;
67300;Laerm;57658;51.436;5.980;2023-09-18T00:41:23;30.81;29.86;31.76;;
67300;Laerm;57658;51.436;5.980;2023-09-18T00:41:33;31.12;29.91;32.09;;
67300;Laerm;57658;51.436;5.980;2023-09-18T00:41:44;31.15;30.23;32.33;;
67300;Laerm;57658;51.436;5.980;2023-09-18T00:41:59;31.26;30.05;32.50;;
67300;Laerm;57658;51.436;5.980;2023-09-18T00:42:09;30.74;29.65;32.03;;
67300;Laerm;57658;51.436;5.980;2023-09-18T00:42:24;30.70;29.69;32.04;;
67300;Laerm;57658;51.436;5.980;2023-09-18T00:42:34;31.33;29.67;43.36;;
67300;Laerm;57658;51.436;5.980;2023-09-18T00:42:44;31.37;29.68;46.40;;
67300;Laerm;57658;51.436;5.980;2023-09-18T00:42:55;31.53;30.04;43.71;;
67300;Laerm;57658;51.436;5.980;2023-09-18T00:43:05;30.72;29.47;32.26;;
67300;Laerm;57658;51.436;5.980;2023-09-18T00:43:16;30.52;29.40;31.46;;
67300;Laerm;57658;51.436;5.980;2023-09-18T00:43:27;30.83;29.71;31.91;;
67300;Laerm;57658;51.436;5.980;2023-09-18T00:43:38;31.03;29.82;32.24;;
67300;Laerm;57658;51.436;5.980;2023-09-18T00:43:48;31.62;29.92;38.18;;
67300;Laerm;57658;51.436;5.980;2023-09-18T00:43:58;30.86;29.60;33.72;;
67300;Laerm;57658;51.436;5.980;2023-09-18T00:44:09;30.66;29.87;31.58;;
67300;Laerm;57658;51.436;5.980;2023-09-18T00:44:28;30.79;29.52;33.30;;
67300;Laerm;57658;51.436;5.980;2023-09-18T00:44:38;30.77;29.66;32.36;;
67300;Laerm;57658;51.436;5.980;2023-09-18T00:44:48;30.74;29.67;31.84;;
67300;Laerm;57658;51.436;5.980;2023-09-18T00:45:00;30.86;29.64;31.97;;
67300;Laerm;57658;51.436;5.980;2023-09-18T00:45:10;31.11;29.95;32.40;;
67300;Laerm;57658;51.436;5.980;2023-09-18T00:45:21;30.94;29.63;32.30;;
67300;Laerm;57658;51.436;5.980;2023-09-18T00:45:31;30.77;29.65;31.95;;
67300;Laerm;57658;51.436;5.980;2023-09-18T00:45:42;30.86;29.93;31.78;;
67300;Laerm;57658;51.436;5.980;2023-09-18T00:45:54;31.08;30.18;32.07;;
67300;Laerm;57658;51.436;5.980;2023-09-18T00:46:04;30.82;29.91;32.48;;
67300;Laerm;57658;51.436;5.980;2023-09-18T00:46:14;30.70;29.45;31.62;;
67300;Laerm;57658;51.436;5.980;2023-09-18T00:46:25;30.71;29.72;31.97;;
67300;Laerm;57658;51.436;5.980;2023-09-18T00:46:35;30.52;29.55;31.43;;
67300;Laerm;57658;51.436;5.980;2023-09-18T00:46:46;30.51;29.56;31.37;;
67300;Laerm;57658;51.436;5.980;2023-09-18T00:46:56;30.68;29.50;31.60;;
67300;Laerm;57658;51.436;5.980;2023-09-18T00:47:07;30.67;29.47;32.01;;
67300;Laerm;57658;51.436;5.980;2023-09-18T00:47:18;30.58;29.47;32.38;;
67300;Laerm;57658;51.436;5.980;2023-09-18T00:47:29;30.66;29.34;34.49;;
67300;Laerm;57658;51.436;5.980;2023-09-18T00:47:39;30.58;29.50;31.62;;
67300;Laerm;57658;51.436;5.980;2023-09-18T00:47:49;30.63;29.69;31.81;;
67300;Laerm;57658;51.436;5.980;2023-09-18T00:48:00;30.57;29.09;31.52;;
67300;Laerm;57658;51.436;5.980;2023-09-18T00:48:11;30.62;29.39;31.41;;
67300;Laerm;57658;51.436;5.980;2023-09-18T00:48:21;31.12;29.86;32.31;;
67300;Laerm;57658;51.436;5.980;2023-09-18T00:48:32;30.99;29.75;32.75;;
67300;Laerm;57658;51.436;5.980;2023-09-18T00:48:42;30.94;29.79;32.17;;
67300;Laerm;57658;51.436;5.980;2023-09-18T00:48:53;30.80;29.62;32.43;;
67300;Laerm;57658;51.436;5.980;2023-09-18T00:49:03;31.02;29.45;33.26;;
67300;Laerm;57658;51.436;5.980;2023-09-18T00:49:14;31.43;29.67;35.48;;
67300;Laerm;57658;51.436;5.980;2023-09-18T00:49:25;31.90;30.37;34.32;;
67300;Laerm;57658;51.436;5.980;2023-09-18T00:49:36;32.14;30.48;35.80;;
67300;Laerm;57658;51.436;5.980;2023-09-18T00:49:48;32.76;30.51;42.93;;
67300;Laerm;57658;51.436;5.980;2023-09-18T00:49:59;32.39;30.45;36.61;;
67300;Laerm;57658;51.436;5.980;2023-09-18T00:50:10;32.22;30.31;36.21;;
67300;Laerm;57658;51.436;5.980;2023-09-18T00:50:22;32.68;30.28;37.37;;
67300;Laerm;57658;51.436;5.980;2023-09-18T00:50:33;32.13;30.01;36.31;;
67300;Laerm;57658;51.436;5.980;2023-09-18T00:50:44;32.59;30.36;38.14;;
67300;Laerm;57658;51.436;5.980;2023-09-18T00:50:54;32.20;30.02;38.52;;
67300;Laerm;57658;51.436;5.980;2023-09-18T00:51:06;32.38;31.05;35.02;;
67300;Laerm;57658;51.436;5.980;2023-09-18T00:51:18;32.00;30.71;34.43;;
67300;Laerm;57658;51.436;5.980;2023-09-18T00:51:28;32.39;30.41;34.42;;
67300;Laerm;57658;51.436;5.980;2023-09-18T00:51:39;32.60;30.34;35.56;;
67300;Laerm;57658;51.436;5.980;2023-09-18T00:51:50;34.99;30.33;42.97;;
67300;Laerm;57658;51.436;5.980;2023-09-18T00:52:01;37.04;31.95;41.88;;
67300;Laerm;57658;51.436;5.980;2023-09-18T00:52:11;34.38;31.67;37.94;;
67300;Laerm;57658;51.436;5.980;2023-09-18T00:52:22;36.96;32.31;40.89;;
67300;Laerm;57658;51.436;5.980;2023-09-18T00:52:33;32.45;30.20;37.41;;
67300;Laerm;57658;51.436;5.980;2023-09-18T00:52:43;32.48;29.99;38.22;;
67300;Laerm;57658;51.436;5.980;2023-09-18T00:52:54;31.58;30.17;33.57;;
67300;Laerm;57658;51.436;5.980;2023-09-18T00:53:04;31.58;30.02;34.82;;
67300;Laerm;57658;51.436;5.980;2023-09-18T00:53:17;34.13;31.14;37.73;;
67300;Laerm;57658;51.436;5.980;2023-09-18T00:53:29;33.86;31.46;37.54;;
67300;Laerm;57658;51.436;5.980;2023-09-18T00:53:42;34.59;31.98;41.29;;
67300;Laerm;57658;51.436;5.980;2023-09-18T00:53:53;53.77;36.15;62.85;;
67300;Laerm;57658;51.436;5.980;2023-09-18T00:54:04;56.29;42.60;63.00;;
67300;Laerm;57658;51.436;5.980;2023-09-18T00:54:16;46.27;40.78;50.60;;
67300;Laerm;57658;51.436;5.980;2023-09-18T00:54:28;37.07;31.54;42.25;;
67300;Laerm;57658;51.436;5.980;2023-09-18T00:54:38;31.47;30.22;32.84;;
67300;Laerm;57658;51.436;5.980;2023-09-18T00:54:49;31.13;30.25;33.00;;
67300;Laerm;57658;51.436;5.980;2023-09-18T00:55:00;31.46;30.20;33.38;;
67300;Laerm;57658;51.436;5.980;2023-09-18T00:55:10;31.51;30.24;33.67;;
67300;Laerm;57658;51.436;5.980;2023-09-18T00:55:21;31.41;30.02;33.26;;
67300;Laerm;57658;51.436;5.980;2023-09-18T00:55:32;30.77;29.50;31.98;;
67300;Laerm;57658;51.436;5.980;2023-09-18T00:55:42;30.44;29.56;31.39;;
67300;Laerm;57658;51.436;5.980;2023-09-18T00:55:53;31.89;29.69;45.03;;
67300;Laerm;57658;51.436;5.980;2023-09-18T00:56:04;32.07;30.25;33.80;;
67300;Laerm;57658;51.436;5.980;2023-09-18T00:56:15;31.14;29.64;32.90;;
67300;Laerm;57658;51.436;5.980;2023-09-18T00:56:25;31.56;29.89;33.53;;
67300;Laerm;57658;51.436;5.980;2023-09-18T00:56:35;33.42;30.70;39.07;;
67300;Laerm;57658;51.436;5.980;2023-09-18T00:56:46;31.80;30.19;33.67;;
67300;Laerm;57658;51.436;5.980;2023-09-18T00:56:58;31.33;30.07;33.73;;
67300;Laerm;57658;51.436;5.980;2023-09-18T00:57:09;32.04;30.32;34.98;;
67300;Laerm;57658;51.436;5.980;2023-09-18T00:57:20;32.00;29.86;34.98;;
67300;Laerm;57658;51.436;5.980;2023-09-18T00:57:30;31.04;29.68;32.21;;
67300;Laerm;57658;51.436;5.980;2023-09-18T00:57:42;31.30;29.99;34.69;;
67300;Laerm;57658;51.436;5.980;2023-09-18T00:57:54;31.25;30.10;33.46;;
67300;Laerm;57658;51.436;5.980;2023-09-18T00:58:05;32.03;30.50;33.79;;
67300;Laerm;57658;51.436;5.980;2023-09-18T00:58:16;32.69;30.75;43.03;;
67300;Laerm;57658;51.436;5.980;2023-09-18T00:58:26;33.05;31.14;42.87;;
67300;Laerm;57658;51.436;5.980;2023-09-18T00:58:37;40.16;30.95;46.89;;
67300;Laerm;57658;51.436;5.980;2023-09-18T00:58:47;46.77;40.67;52.36;;
67300;Laerm;57658;51.436;5.980;2023-09-18T00:58:57;54.68;49.32;57.79;;
67300;Laerm;57658;51.436;5.980;2023-09-18T00:59:09;52.38;40.00;59.61;;
67300;Laerm;57658;51.436;5.980;2023-09-18T00:59:20;45.21;39.05;51.14;;
67300;Laerm;57658;51.436;5.980;2023-09-18T00:59:31;36.50;32.54;41.68;;
67300;Laerm;57658;51.436;5.980;2023-09-18T00:59:41;31.68;29.89;33.92;;
67300;Laerm;57658;51.436;5.980;2023-09-18T00:59:52;30.41;29.07;31.33;;